createdAt,value
2023-03-29T00:01:36.078Z,66.50
2023-03-29T00:04:06.362Z,66.80
2023-03-29T00:06:33.598Z,67.06
2023-03-29T00:09:01.594Z,67.47
2023-03-29T00:11:27.991Z,65.67
2023-03-29T00:13:54.416Z,66.75
2023-03-29T00:16:21.114Z,67.21
2023-03-29T00:18:47.524Z,68.15
2023-03-29T00:21:14.121Z,69.04
2023-03-29T00:23:40.704Z,70.08
2023-03-29T00:26:08.216Z,72.30
2023-03-29T00:28:35.367Z,73.77
2023-03-29T00:31:11.276Z,73.96
2023-03-29T00:33:38.865Z,72.53
2023-03-29T00:36:07.100Z,72.95
2023-03-29T00:38:33.784Z,73.19
2023-03-29T00:41:00.640Z,73.15
2023-03-29T00:43:27.441Z,73.18
2023-03-29T00:45:53.863Z,73.11
2023-03-29T00:48:25.714Z,73.53
2023-03-29T00:51:07.054Z,74.16
2023-03-29T00:53:46.775Z,73.94
2023-03-29T00:56:25.126Z,72.80
2023-03-29T00:59:05.312Z,74.39
2023-03-29T01:01:54.650Z,75.12
2023-03-29T01:04:46.540Z,75.45
2023-03-29T01:07:23.117Z,75.69
2023-03-29T01:09:55.249Z,75.43
2023-03-29T01:12:32.667Z,74.57
2023-03-29T01:15:06.368Z,73.38
2023-03-29T01:17:33.017Z,72.76
2023-03-29T01:20:13.749Z,71.17
2023-03-29T01:23:00.746Z,72.06
2023-03-29T01:25:43.679Z,72.23
2023-03-29T01:28:14.614Z,71.78
2023-03-29T01:30:49.860Z,72.57
2023-03-29T01:33:28.388Z,72.79
2023-03-29T01:36:08.094Z,72.34
2023-03-29T01:38:42.785Z,71.81
2023-03-29T01:41:10.829Z,72.07
2023-03-29T01:43:47.070Z,72.13
2023-03-29T01:46:39.820Z,71.45
2023-03-29T01:49:18.661Z,71.44
2023-03-29T01:51:52.061Z,71.62
2023-03-29T01:54:21.998Z,71.34
2023-03-29T01:56:51.212Z,72.17
2023-03-29T01:59:22.508Z,72.24
2023-03-29T02:01:53.576Z,72.24
2023-03-29T02:04:25.401Z,71.95
2023-03-29T02:06:54.585Z,71.75
2023-03-29T02:09:21.946Z,72.40
2023-03-29T02:11:51.431Z,70.89
2023-03-29T02:14:17.805Z,70.78
2023-03-29T02:16:46.119Z,71.49
2023-03-29T02:19:13.511Z,71.44
2023-03-29T02:22:06.942Z,71.00
2023-03-29T02:24:36.501Z,70.54
2023-03-29T02:27:04.399Z,70.56
2023-03-29T02:29:31.137Z,70.23
2023-03-29T02:32:27.296Z,70.19
2023-03-29T02:35:12.951Z,71.34
2023-03-29T02:37:44.159Z,71.16
2023-03-29T02:40:13.912Z,71.83
2023-03-29T02:42:43.962Z,71.67
2023-03-29T02:45:15.153Z,71.59
2023-03-29T02:47:45.783Z,71.43
2023-03-29T02:50:12.798Z,71.69
2023-03-29T02:52:43.081Z,70.22
2023-03-29T02:55:14.939Z,70.81
2023-03-29T02:57:43.459Z,70.36
2023-03-29T03:00:11.717Z,69.36
2023-03-29T03:02:38.265Z,69.97
2023-03-29T03:05:06.342Z,68.22
2023-03-29T03:07:33.678Z,67.40
2023-03-29T03:10:00.160Z,68.54
2023-03-29T03:12:27.544Z,66.84
2023-03-29T03:14:54.542Z,64.82
2023-03-29T03:17:20.965Z,65.93
2023-03-29T03:19:47.459Z,65.88
2023-03-29T03:22:14.855Z,65.80
2023-03-29T03:24:42.568Z,67.26
2023-03-29T03:27:10.993Z,66.34
2023-03-29T03:29:38.564Z,66.47
2023-03-29T03:32:17.381Z,65.81
2023-03-29T03:35:07.624Z,64.82
2023-03-29T03:37:34.058Z,65.60
2023-03-29T03:40:00.537Z,64.33
2023-03-29T03:42:29.519Z,64.51
2023-03-29T03:44:56.475Z,64.62
2023-03-29T03:47:45.909Z,64.54
2023-03-29T03:50:21.703Z,64.28
2023-03-29T03:52:48.089Z,62.93
2023-03-29T03:55:14.537Z,64.78
2023-03-29T03:57:47.836Z,65.27
2023-03-29T04:00:21.063Z,64.64
2023-03-29T04:02:59.639Z,64.71
2023-03-29T04:05:26.296Z,63.71
2023-03-29T04:07:54.156Z,64.23
2023-03-29T04:10:52.941Z,63.78
2023-03-29T04:13:25.700Z,63.54
2023-03-29T04:16:18.001Z,63.95
2023-03-29T04:18:44.583Z,63.59
2023-03-29T04:21:11.111Z,64.14
2023-03-29T04:23:37.579Z,64.54
2023-03-29T04:26:04.904Z,64.46
2023-03-29T04:28:56.327Z,64.13
2023-03-29T04:31:32.214Z,64.57
2023-03-29T04:34:17.382Z,64.66
2023-03-29T04:36:45.718Z,64.97
2023-03-29T04:39:18.741Z,64.33
2023-03-29T04:41:48.444Z,64.00
2023-03-29T04:44:21.878Z,64.57
2023-03-29T04:46:48.665Z,64.33
2023-03-29T04:49:34.002Z,65.87
2023-03-29T04:52:00.895Z,66.57
2023-03-29T04:54:29.808Z,65.39
2023-03-29T04:57:22.180Z,64.99
2023-03-29T05:00:14.678Z,66.03
2023-03-29T05:02:59.730Z,66.53
2023-03-29T05:05:28.715Z,67.33
2023-03-29T05:07:57.059Z,65.92
2023-03-29T05:10:29.720Z,66.19
2023-03-29T05:12:56.849Z,65.57
2023-03-29T05:15:23.302Z,64.94
2023-03-29T05:17:49.999Z,65.77
2023-03-29T05:20:18.228Z,65.29
2023-03-29T05:22:53.532Z,64.67
2023-03-29T05:25:40.491Z,66.05
2023-03-29T05:28:06.986Z,65.97
2023-03-29T05:30:33.837Z,65.89
2023-03-29T05:33:09.253Z,66.54
2023-03-29T05:35:36.290Z,66.55
2023-03-29T05:38:06.366Z,67.41
2023-03-29T05:40:33.790Z,67.27
2023-03-29T05:43:12.220Z,65.87
2023-03-29T05:45:38.904Z,66.71
2023-03-29T05:48:05.808Z,66.29
2023-03-29T05:50:33.129Z,67.09
2023-03-29T05:52:59.901Z,66.43
2023-03-29T05:55:26.342Z,65.91
2023-03-29T05:57:52.792Z,66.25
2023-03-29T06:00:23.722Z,66.42
2023-03-29T06:03:06.414Z,66.51
2023-03-29T06:05:36.826Z,66.71
2023-03-29T06:08:05.157Z,66.89
2023-03-29T06:11:02.469Z,66.90
2023-03-29T06:13:51.693Z,66.67
2023-03-29T06:16:18.182Z,66.87
2023-03-29T06:18:44.788Z,66.54
2023-03-29T06:21:11.250Z,66.19
2023-03-29T06:23:38.011Z,66.76
2023-03-29T06:26:05.733Z,67.43
2023-03-29T06:28:32.270Z,67.57
2023-03-29T06:31:03.075Z,68.17
2023-03-29T06:33:37.180Z,67.34
2023-03-29T06:36:22.285Z,67.38
2023-03-29T06:38:49.072Z,67.65
2023-03-29T06:41:26.466Z,67.18
2023-03-29T06:44:13.016Z,67.27
2023-03-29T06:46:53.254Z,67.83
2023-03-29T06:49:20.651Z,68.01
2023-03-29T06:52:16.222Z,67.42
2023-03-29T06:54:44.777Z,68.29
2023-03-29T06:57:13.315Z,68.41
2023-03-29T06:59:39.842Z,68.65
2023-03-29T07:02:33.922Z,68.81
2023-03-29T07:05:11.792Z,68.61
2023-03-29T07:07:59.683Z,68.69
2023-03-29T07:10:39.378Z,68.79
2023-03-29T07:13:26.150Z,68.39
2023-03-29T07:15:53.449Z,68.64
2023-03-29T07:18:24.647Z,69.06
2023-03-29T07:20:52.117Z,69.35
2023-03-29T07:23:18.615Z,70.48
2023-03-29T07:25:46.906Z,69.17
2023-03-29T07:28:13.544Z,67.83
2023-03-29T07:30:39.957Z,68.38
2023-03-29T07:33:12.199Z,68.66
2023-03-29T07:35:47.687Z,68.67
2023-03-29T07:38:15.467Z,68.52
2023-03-29T07:40:46.969Z,68.57
2023-03-29T07:43:32.372Z,68.00
2023-03-29T07:46:04.809Z,67.71
2023-03-29T07:48:33.587Z,67.44
2023-03-29T07:51:05.063Z,68.24
2023-03-29T07:53:42.739Z,67.80
2023-03-29T07:56:32.395Z,66.99
2023-03-29T07:59:10.877Z,67.13
2023-03-29T08:01:40.835Z,67.59
2023-03-29T08:04:16.746Z,66.86
2023-03-29T08:07:01.993Z,67.31
2023-03-29T08:09:46.605Z,67.85
2023-03-29T08:12:13.110Z,67.74
2023-03-29T08:14:39.509Z,67.89
2023-03-29T08:17:13.064Z,67.05
2023-03-29T08:19:50.731Z,67.26
2023-03-29T08:22:20.919Z,67.60
2023-03-29T08:25:05.520Z,67.83
2023-03-29T08:27:37.571Z,67.97
2023-03-29T08:30:06.529Z,67.35
2023-03-29T08:32:36.744Z,67.27
2023-03-29T08:35:05.300Z,67.55
2023-03-29T08:37:37.859Z,68.14
2023-03-29T08:40:06.096Z,67.75
2023-03-29T08:42:56.691Z,68.22
2023-03-29T08:45:32.511Z,67.14
2023-03-29T08:48:25.420Z,66.53
2023-03-29T08:50:57.146Z,66.77
2023-03-29T08:53:41.358Z,65.88
2023-03-29T08:56:27.328Z,67.02
2023-03-29T08:59:28.733Z,66.73
2023-03-29T09:01:57.820Z,66.14
2023-03-29T09:04:28.448Z,66.15
2023-03-29T09:07:09.272Z,66.17
2023-03-29T09:09:42.169Z,65.99
2023-03-29T09:12:34.644Z,66.51
2023-03-29T09:15:15.205Z,66.43
2023-03-29T09:17:52.900Z,65.39
2023-03-29T09:20:30.055Z,66.36
2023-03-29T09:23:24.711Z,65.66
2023-03-29T09:26:19.478Z,65.48
2023-03-29T09:29:20.400Z,64.44
2023-03-29T09:31:48.390Z,64.38
2023-03-29T09:34:42.710Z,63.80
2023-03-29T09:37:25.673Z,64.26
2023-03-29T09:39:53.132Z,64.25
2023-03-29T09:42:23.822Z,64.16
2023-03-29T09:44:53.991Z,64.59
2023-03-29T09:47:37.426Z,63.78
2023-03-29T09:50:30.874Z,63.53
2023-03-29T09:53:01.108Z,62.93
2023-03-29T09:55:32.287Z,63.06
2023-03-29T09:58:14.763Z,62.61
2023-03-29T10:00:46.341Z,61.66
2023-03-29T10:03:24.686Z,62.28
2023-03-29T10:06:03.569Z,61.56
2023-03-29T10:08:40.716Z,62.37
2023-03-29T10:11:29.986Z,62.19
2023-03-29T10:14:01.919Z,60.85
2023-03-29T10:16:33.243Z,61.56
2023-03-29T10:19:27.022Z,61.21
2023-03-29T10:21:55.686Z,61.69
2023-03-29T10:24:23.547Z,61.12
2023-03-29T10:26:55.788Z,61.41
2023-03-29T10:29:24.696Z,61.90
2023-03-29T10:31:51.925Z,62.59
2023-03-29T10:34:18.834Z,62.68
2023-03-29T10:36:59.031Z,64.00
2023-03-29T10:39:30.062Z,63.86
2023-03-29T10:41:59.626Z,63.16
2023-03-29T10:44:33.272Z,64.18
2023-03-29T10:47:17.485Z,63.60
2023-03-29T10:49:47.806Z,63.10
2023-03-29T10:52:16.332Z,61.76
2023-03-29T10:54:43.524Z,62.31
2023-03-29T10:57:15.789Z,62.75
2023-03-29T11:00:02.146Z,63.09
2023-03-29T11:02:47.680Z,63.42
2023-03-29T11:05:26.379Z,64.56
2023-03-29T11:08:15.256Z,64.73
2023-03-29T11:10:58.958Z,64.13
2023-03-29T11:13:50.625Z,64.55
2023-03-29T11:16:29.891Z,65.38
2023-03-29T11:19:23.958Z,64.59
2023-03-29T11:22:08.620Z,65.38
2023-03-29T11:25:08.054Z,65.62
2023-03-29T11:27:51.000Z,66.60
2023-03-29T11:30:35.110Z,67.32
2023-03-29T11:33:20.795Z,67.20
2023-03-29T11:36:20.699Z,67.88
2023-03-29T11:39:05.669Z,68.33
2023-03-29T11:41:35.039Z,68.48
2023-03-29T11:44:14.715Z,69.77
2023-03-29T11:46:46.779Z,69.91
2023-03-29T11:49:26.538Z,70.88
2023-03-29T11:52:06.244Z,70.84
2023-03-29T11:54:45.376Z,72.45
2023-03-29T11:57:22.379Z,72.98
2023-03-29T12:00:02.171Z,72.47
2023-03-29T12:02:49.847Z,73.41
2023-03-29T12:05:30.846Z,72.44
2023-03-29T12:08:04.999Z,72.15
2023-03-29T12:10:40.453Z,72.10
2023-03-29T12:13:16.516Z,70.71
2023-03-29T12:15:48.141Z,71.16
2023-03-29T12:18:39.350Z,70.97
2023-03-29T12:21:12.165Z,70.46
2023-03-29T12:23:43.173Z,71.34
2023-03-29T12:26:36.299Z,70.56
2023-03-29T12:29:35.216Z,70.33
2023-03-29T12:32:31.966Z,70.52
2023-03-29T12:36:02.176Z,69.93
2023-03-29T12:38:51.723Z,70.06
2023-03-29T12:41:38.179Z,69.81
2023-03-29T12:44:32.957Z,69.26
2023-03-29T12:47:25.241Z,69.39
2023-03-29T12:49:56.025Z,70.04
2023-03-29T12:52:34.087Z,69.97
2023-03-29T12:55:20.854Z,69.66
2023-03-29T12:58:20.758Z,69.63
2023-03-29T13:00:47.972Z,67.92
2023-03-29T13:03:39.194Z,67.88
2023-03-29T13:06:10.779Z,66.68
2023-03-29T13:08:42.502Z,67.98
2023-03-29T13:11:25.226Z,67.49
2023-03-29T13:13:52.304Z,68.17
2023-03-29T13:16:28.643Z,68.23
2023-03-29T13:19:19.967Z,68.15
2023-03-29T13:22:15.713Z,68.90
2023-03-29T13:24:47.861Z,68.77
2023-03-29T13:27:26.170Z,67.36
2023-03-29T13:29:55.489Z,67.58
2023-03-29T13:32:31.956Z,67.64
2023-03-29T13:35:12.587Z,68.01
2023-03-29T13:37:57.853Z,67.11
2023-03-29T13:40:30.118Z,68.52
2023-03-29T13:43:08.642Z,67.75
2023-03-29T13:45:35.955Z,67.92
2023-03-29T13:48:27.085Z,68.29
2023-03-29T13:51:00.901Z,68.35
2023-03-29T13:53:39.283Z,68.59
2023-03-29T13:56:10.918Z,69.17
2023-03-29T13:58:48.222Z,67.15
2023-03-29T14:01:31.890Z,66.67
2023-03-29T14:03:59.253Z,66.54
2023-03-29T14:06:30.433Z,66.20
2023-03-29T14:08:56.836Z,66.03
2023-03-29T14:11:26.519Z,64.24
2023-03-29T14:13:55.707Z,64.16
2023-03-29T14:16:26.115Z,63.77
2023-03-29T14:18:52.887Z,64.79
2023-03-29T14:21:20.929Z,65.65
2023-03-29T14:23:54.161Z,66.56
2023-03-29T14:26:23.895Z,66.59
2023-03-29T14:28:56.578Z,67.32
2023-03-29T14:31:31.272Z,67.50
2023-03-29T14:34:02.770Z,67.89
2023-03-29T14:36:32.236Z,68.55
2023-03-29T14:39:06.029Z,69.33
2023-03-29T14:41:35.535Z,70.14
2023-03-29T14:44:03.222Z,70.02
2023-03-29T14:46:29.933Z,70.13
2023-03-29T14:48:57.148Z,70.19
2023-03-29T14:51:30.180Z,70.16
2023-03-29T14:54:02.830Z,71.85
2023-03-29T14:56:32.454Z,72.49
2023-03-29T14:59:02.132Z,73.75
2023-03-29T15:01:28.576Z,73.89
2023-03-29T15:04:03.132Z,73.83
2023-03-29T15:06:39.928Z,74.07
2023-03-29T15:09:07.098Z,75.13
2023-03-29T15:11:34.960Z,74.36
2023-03-29T15:14:04.967Z,75.88
2023-03-29T15:16:31.853Z,76.10
2023-03-29T15:19:01.393Z,75.84
2023-03-29T15:21:32.948Z,76.92
2023-03-29T15:24:03.635Z,76.92
2023-03-29T15:26:33.626Z,77.31
2023-03-29T15:29:09.198Z,76.58
2023-03-29T15:31:38.366Z,77.08
2023-03-29T15:34:10.798Z,77.14
2023-03-29T15:36:45.080Z,77.48
2023-03-29T15:39:13.651Z,77.19
2023-03-29T15:41:41.291Z,77.32
2023-03-29T15:44:07.706Z,76.96
2023-03-29T15:46:34.107Z,76.96
2023-03-29T15:49:00.668Z,76.08
2023-03-29T15:51:27.389Z,75.89
2023-03-29T15:53:53.742Z,75.59
2023-03-29T15:56:24.345Z,75.38
2023-03-29T15:58:50.831Z,75.80
2023-03-29T16:01:35.010Z,75.00
2023-03-29T16:04:06.752Z,74.61
2023-03-29T16:06:34.252Z,75.28
2023-03-29T16:09:00.989Z,76.06
2023-03-29T16:11:28.232Z,75.75
2023-03-29T16:13:55.661Z,75.50
2023-03-29T16:16:22.411Z,74.93
2023-03-29T16:18:48.885Z,74.42
2023-03-29T16:21:18.090Z,74.79
2023-03-29T16:23:47.714Z,74.11
2023-03-29T16:26:16.560Z,74.01
2023-03-29T16:28:43.428Z,74.64
2023-03-29T16:31:11.790Z,74.43
2023-03-29T16:33:38.877Z,75.20
2023-03-29T16:36:06.315Z,74.88
2023-03-29T16:38:33.665Z,75.34
2023-03-29T16:41:00.611Z,75.18
2023-03-29T16:43:27.747Z,75.55
2023-03-29T16:45:56.913Z,75.58
2023-03-29T16:48:23.719Z,76.05
2023-03-29T16:50:50.630Z,75.97
2023-03-29T16:53:18.494Z,75.59
2023-03-29T16:55:46.034Z,75.90
2023-03-29T16:58:12.389Z,76.35
2023-03-29T17:00:40.840Z,75.84
2023-03-29T17:03:07.922Z,75.67
2023-03-29T17:05:39.797Z,76.56
2023-03-29T17:08:06.672Z,75.57
2023-03-29T17:10:33.146Z,76.58
2023-03-29T17:12:59.515Z,76.19
2023-03-29T17:15:25.914Z,76.54
2023-03-29T17:17:52.375Z,75.92
2023-03-29T17:20:19.005Z,75.94
2023-03-29T17:22:45.570Z,76.22
2023-03-29T17:25:11.932Z,76.12
2023-03-29T17:27:38.332Z,76.30
2023-03-29T17:30:06.296Z,76.22
2023-03-29T17:32:32.813Z,76.32
2023-03-29T17:34:59.465Z,76.59
2023-03-29T17:37:27.700Z,76.36
2023-03-29T17:39:54.672Z,76.63
2023-03-29T17:42:21.073Z,77.16
2023-03-29T17:44:47.420Z,76.86
2023-03-29T17:47:13.801Z,76.57
2023-03-29T17:49:40.475Z,77.40
2023-03-29T17:52:06.867Z,77.81
2023-03-29T17:54:33.277Z,77.84
2023-03-29T17:56:59.689Z,77.19
2023-03-29T17:59:26.082Z,77.95
2023-03-29T18:01:52.515Z,78.05
2023-03-29T18:04:18.949Z,78.37
2023-03-29T18:06:45.700Z,78.06
2023-03-29T18:09:12.976Z,78.33
2023-03-29T18:11:39.335Z,78.27
2023-03-29T18:14:05.892Z,78.73
2023-03-29T18:16:32.437Z,78.34
2023-03-29T18:18:58.875Z,78.66
2023-03-29T18:21:26.202Z,78.61
2023-03-29T18:23:55.556Z,79.12
2023-03-29T18:26:23.367Z,79.26
2023-03-29T18:28:50.694Z,78.96
2023-03-29T18:31:17.300Z,79.59
2023-03-29T18:33:43.688Z,78.81
2023-03-29T18:36:13.241Z,79.50
2023-03-29T18:38:42.917Z,79.66
2023-03-29T18:41:11.995Z,78.95
2023-03-29T18:43:39.697Z,78.79
2023-03-29T18:46:07.728Z,79.79
2023-03-29T18:48:38.622Z,79.19
2023-03-29T18:51:10.859Z,79.77
2023-03-29T18:53:38.767Z,79.48
2023-03-29T18:56:06.440Z,80.09
2023-03-29T18:58:32.973Z,80.22
2023-03-29T19:01:04.196Z,80.52
2023-03-29T19:03:34.744Z,80.96
2023-03-29T19:06:02.985Z,80.98
2023-03-29T19:08:29.640Z,81.17
2023-03-29T19:11:05.783Z,81.69
2023-03-29T19:13:33.593Z,81.72
2023-03-29T19:16:00.403Z,81.82
2023-03-29T19:18:27.561Z,82.59
2023-03-29T19:20:54.297Z,83.19
2023-03-29T19:23:27.074Z,83.30
2023-03-29T19:26:02.684Z,83.48
2023-03-29T19:28:29.730Z,83.21
2023-03-29T19:30:58.601Z,83.40
2023-03-29T19:33:25.585Z,83.83
2023-03-29T19:35:52.356Z,83.64
2023-03-29T19:38:20.063Z,84.60
2023-03-29T19:40:48.687Z,84.03
2023-03-29T19:43:16.575Z,84.18
2023-03-29T19:45:47.242Z,83.55
2023-03-29T19:48:21.900Z,84.32
2023-03-29T19:50:49.385Z,84.58
2023-03-29T19:53:15.849Z,84.31
2023-03-29T19:55:44.120Z,85.16
2023-03-29T19:58:10.540Z,84.75
2023-03-29T20:00:38.625Z,83.78
2023-03-29T20:03:05.493Z,84.44
2023-03-29T20:05:32.443Z,84.26
2023-03-29T20:07:58.803Z,84.18
2023-03-29T20:10:25.352Z,84.83
2023-03-29T20:12:51.812Z,84.88
2023-03-29T20:15:18.984Z,85.91
2023-03-29T20:17:59.474Z,85.39
2023-03-29T20:20:33.104Z,84.28
2023-03-29T20:23:04.600Z,84.99
2023-03-29T20:25:32.292Z,84.65
2023-03-29T20:27:59.560Z,84.82
2023-03-29T20:30:26.282Z,84.61
2023-03-29T20:32:52.710Z,85.00
2023-03-29T20:35:19.144Z,84.43
2023-03-29T20:37:45.695Z,84.35
2023-03-29T20:40:12.855Z,84.64
2023-03-29T20:42:39.320Z,84.17
2023-03-29T20:45:07.718Z,84.05
2023-03-29T20:47:42.155Z,83.82
2023-03-29T20:50:10.375Z,84.30
2023-03-29T20:52:36.768Z,83.59
2023-03-29T20:55:03.527Z,83.93
2023-03-29T20:57:30.643Z,83.82
2023-03-29T20:59:57.120Z,83.31
2023-03-29T21:02:23.597Z,84.20
2023-03-29T21:04:53.658Z,84.23
2023-03-29T21:07:21.559Z,83.89
2023-03-29T21:09:49.781Z,84.35
2023-03-29T21:12:16.693Z,84.67
2023-03-29T21:14:43.471Z,85.49
2023-03-29T21:17:14.251Z,85.16
2023-03-29T21:19:41.205Z,85.08
2023-03-29T21:22:07.537Z,84.61
2023-03-29T21:24:36.273Z,85.06
2023-03-29T21:27:02.682Z,85.25
2023-03-29T21:29:29.147Z,84.79
2023-03-29T21:31:55.775Z,84.90
2023-03-29T21:34:22.577Z,84.87
2023-03-29T21:36:49.512Z,84.60
2023-03-29T21:39:16.010Z,85.58
2023-03-29T21:41:42.400Z,85.34
2023-03-29T21:44:08.979Z,86.09
2023-03-29T21:46:35.501Z,86.59
2023-03-29T21:49:01.892Z,87.81
2023-03-29T21:51:28.334Z,86.88
2023-03-29T21:53:54.702Z,87.88
2023-03-29T21:56:22.373Z,88.50
2023-03-29T21:58:48.840Z,88.88
2023-03-29T22:01:18.984Z,88.69
2023-03-29T22:03:46.592Z,89.05
2023-03-29T22:06:14.318Z,88.92
2023-03-29T22:08:40.735Z,89.11
2023-03-29T22:11:14.111Z,89.70
2023-03-29T22:13:41.461Z,89.54
2023-03-29T22:16:08.554Z,90.38
2023-03-29T22:18:43.510Z,90.25
2023-03-29T22:21:13.832Z,90.47
2023-03-29T22:23:42.407Z,89.99
2023-03-29T22:26:11.302Z,90.88
2023-03-29T22:28:38.603Z,90.52
2023-03-29T22:31:10.996Z,90.59
2023-03-29T22:33:38.083Z,91.10
2023-03-29T22:36:13.563Z,91.82
2023-03-29T22:38:39.953Z,91.47
2023-03-29T22:41:06.597Z,91.80
2023-03-29T22:43:33.028Z,92.29
2023-03-29T22:45:59.454Z,92.16
2023-03-29T22:48:25.889Z,92.39
2023-03-29T22:50:52.415Z,93.42
2023-03-29T22:53:18.830Z,94.19
2023-03-29T22:55:46.126Z,95.29
2023-03-29T22:58:12.566Z,96.47
2023-03-29T23:00:38.972Z,96.15
2023-03-29T23:03:06.450Z,96.06
2023-03-29T23:05:43.301Z,96.09
2023-03-29T23:08:09.887Z,96.69
2023-03-29T23:10:36.402Z,96.52
2023-03-29T23:13:09.023Z,96.29
2023-03-29T23:15:37.155Z,96.12
2023-03-29T23:18:04.572Z,95.26
2023-03-29T23:20:32.380Z,95.46
2023-03-29T23:22:59.324Z,95.14
2023-03-29T23:25:26.422Z,94.73
2023-03-29T23:27:53.918Z,94.70
2023-03-29T23:30:21.619Z,94.47
2023-03-29T23:32:49.275Z,95.22
2023-03-29T23:35:16.513Z,95.19
2023-03-29T23:37:43.346Z,94.92
2023-03-29T23:40:15.405Z,94.67
2023-03-29T23:42:44.382Z,95.04
2023-03-29T23:45:13.539Z,95.07
2023-03-29T23:47:40.991Z,95.58
2023-03-29T23:50:09.379Z,96.25
2023-03-29T23:52:37.048Z,95.89
2023-03-29T23:55:04.643Z,96.27
2023-03-29T23:57:33.957Z,95.69
